sensor_id;sensor_type;location;lat;lon;timestamp;temperature;humidity
37356;DHT22;48747;50.250;18.848;2022-07-18T00:01:06;12.70;99.90
37356;DHT22;48747;50.250;18.848;2022-07-18T00:03:10;12.70;99.90
37356;DHT22;48747;50.250;18.848;2022-07-18T00:05:13;12.70;99.90
37356;DHT22;48747;50.250;18.848;2022-07-18T00:07:16;12.50;99.90
37356;DHT22;48747;50.250;18.848;2022-07-18T00:09:19;12.60;99.90
37356;DHT22;48747;50.250;18.848;2022-07-18T00:11:24;12.60;99.90
37356;DHT22;48747;50.250;18.848;2022-07-18T00:13:27;12.70;99.90
37356;DHT22;48747;50.250;18.848;2022-07-18T00:15:30;12.70;99.90
37356;DHT22;48747;50.250;18.848;2022-07-18T00:17:33;12.70;99.90
37356;DHT22;48747;50.250;18.848;2022-07-18T00:19:37;12.80;99.90
37356;DHT22;48747;50.250;18.848;2022-07-18T00:21:40;12.70;99.90
37356;DHT22;48747;50.250;18.848;2022-07-18T00:23:45;12.60;99.90
37356;DHT22;48747;50.250;18.848;2022-07-18T00:25:48;12.70;99.90
37356;DHT22;48747;50.250;18.848;2022-07-18T00:27:51;12.60;99.90
37356;DHT22;48747;50.250;18.848;2022-07-18T00:29:54;12.60;99.90
37356;DHT22;48747;50.250;18.848;2022-07-18T00:31:57;12.60;99.90
37356;DHT22;48747;50.250;18.848;2022-07-18T00:34:01;12.60;99.90
37356;DHT22;48747;50.250;18.848;2022-07-18T00:36:04;12.50;99.90
37356;DHT22;48747;50.250;18.848;2022-07-18T00:38:07;12.40;99.90
37356;DHT22;48747;50.250;18.848;2022-07-18T00:40:10;12.40;99.90
37356;DHT22;48747;50.250;18.848;2022-07-18T00:42:13;12.30;99.90
37356;DHT22;48747;50.250;18.848;2022-07-18T00:44:18;12.20;99.90
37356;DHT22;48747;50.250;18.848;2022-07-18T00:46:23;12.10;99.90
37356;DHT22;48747;50.250;18.848;2022-07-18T00:48:26;12.10;99.90
37356;DHT22;48747;50.250;18.848;2022-07-18T00:50:29;12.10;99.90
37356;DHT22;48747;50.250;18.848;2022-07-18T00:52:32;12.20;99.90
37356;DHT22;48747;50.250;18.848;2022-07-18T00:54:35;12.30;99.90
37356;DHT22;48747;50.250;18.848;2022-07-18T00:56:38;12.40;99.90
37356;DHT22;48747;50.250;18.848;2022-07-18T00:58:43;12.40;99.90
37356;DHT22;48747;50.250;18.848;2022-07-18T01:00:46;12.30;99.90
37356;DHT22;48747;50.250;18.848;2022-07-18T01:03:06;12.30;99.90
37356;DHT22;48747;50.250;18.848;2022-07-18T01:05:10;12.20;99.90
37356;DHT22;48747;50.250;18.848;2022-07-18T01:07:13;12.20;99.90
37356;DHT22;48747;50.250;18.848;2022-07-18T01:09:17;12.10;99.90
37356;DHT22;48747;50.250;18.848;2022-07-18T01:11:20;12.10;99.90
37356;DHT22;48747;50.250;18.848;2022-07-18T01:13:23;12.00;99.90
37356;DHT22;48747;50.250;18.848;2022-07-18T01:15:26;12.00;99.90
37356;DHT22;48747;50.250;18.848;2022-07-18T01:17:29;12.00;99.90
37356;DHT22;48747;50.250;18.848;2022-07-18T01:19:32;12.00;99.90
37356;DHT22;48747;50.250;18.848;2022-07-18T01:21:37;12.00;99.90
37356;DHT22;48747;50.250;18.848;2022-07-18T01:23:42;12.00;99.90
37356;DHT22;48747;50.250;18.848;2022-07-18T01:25:46;12.00;99.90
37356;DHT22;48747;50.250;18.848;2022-07-18T01:27:49;12.00;99.90
37356;DHT22;48747;50.250;18.848;2022-07-18T01:29:53;12.10;99.90
37356;DHT22;48747;50.250;18.848;2022-07-18T01:31:56;12.20;99.90
37356;DHT22;48747;50.250;18.848;2022-07-18T01:34:02;12.30;99.90
37356;DHT22;48747;50.250;18.848;2022-07-18T01:36:06;12.20;99.90
37356;DHT22;48747;50.250;18.848;2022-07-18T01:38:09;12.20;99.90
37356;DHT22;48747;50.250;18.848;2022-07-18T01:40:12;12.00;99.90
37356;DHT22;48747;50.250;18.848;2022-07-18T01:42:16;12.00;99.90
37356;DHT22;48747;50.250;18.848;2022-07-18T01:44:19;11.90;99.90
37356;DHT22;48747;50.250;18.848;2022-07-18T01:46:22;11.80;99.90
37356;DHT22;48747;50.250;18.848;2022-07-18T01:48:25;11.70;99.90
37356;DHT22;48747;50.250;18.848;2022-07-18T01:50:28;11.70;99.90
37356;DHT22;48747;50.250;18.848;2022-07-18T01:52:31;11.70;99.90
37356;DHT22;48747;50.250;18.848;2022-07-18T01:54:36;11.70;99.90
37356;DHT22;48747;50.250;18.848;2022-07-18T01:56:39;11.70;99.90
37356;DHT22;48747;50.250;18.848;2022-07-18T01:58:42;11.80;99.90
37356;DHT22;48747;50.250;18.848;2022-07-18T02:00:45;11.80;99.90
37356;DHT22;48747;50.250;18.848;2022-07-18T02:02:48;11.80;99.90
37356;DHT22;48747;50.250;18.848;2022-07-18T02:04:51;11.80;99.90
37356;DHT22;48747;50.250;18.848;2022-07-18T02:07:04;11.70;99.90
37356;DHT22;48747;50.250;18.848;2022-07-18T02:09:08;11.70;99.90
37356;DHT22;48747;50.250;18.848;2022-07-18T02:11:11;11.60;99.90
37356;DHT22;48747;50.250;18.848;2022-07-18T02:13:14;11.60;99.90
37356;DHT22;48747;50.250;18.848;2022-07-18T02:15:18;11.50;99.90
37356;DHT22;48747;50.250;18.848;2022-07-18T02:17:22;11.50;99.90
37356;DHT22;48747;50.250;18.848;2022-07-18T02:19:25;11.50;99.90
37356;DHT22;48747;50.250;18.848;2022-07-18T02:21:28;11.60;99.90
37356;DHT22;48747;50.250;18.848;2022-07-18T02:23:31;11.60;99.90
37356;DHT22;48747;50.250;18.848;2022-07-18T02:25:34;11.50;99.90
37356;DHT22;48747;50.250;18.848;2022-07-18T02:27:37;11.60;99.90
37356;DHT22;48747;50.250;18.848;2022-07-18T02:29:40;11.60;99.90
37356;DHT22;48747;50.250;18.848;2022-07-18T02:31:43;11.60;99.90
37356;DHT22;48747;50.250;18.848;2022-07-18T02:33:46;11.70;99.90
37356;DHT22;48747;50.250;18.848;2022-07-18T02:35:49;11.60;99.90
37356;DHT22;48747;50.250;18.848;2022-07-18T02:37:53;11.60;99.90
37356;DHT22;48747;50.250;18.848;2022-07-18T02:39:56;11.50;99.90
37356;DHT22;48747;50.250;18.848;2022-07-18T02:41:59;11.50;99.90
37356;DHT22;48747;50.250;18.848;2022-07-18T02:44:04;11.50;99.90
37356;DHT22;48747;50.250;18.848;2022-07-18T02:46:07;11.50;99.90
37356;DHT22;48747;50.250;18.848;2022-07-18T02:48:10;11.60;99.90
37356;DHT22;48747;50.250;18.848;2022-07-18T02:50:13;11.60;99.90
37356;DHT22;48747;50.250;18.848;2022-07-18T02:52:16;11.60;99.90
37356;DHT22;48747;50.250;18.848;2022-07-18T02:54:19;11.70;99.90
37356;DHT22;48747;50.250;18.848;2022-07-18T02:56:22;11.70;99.90
37356;DHT22;48747;50.250;18.848;2022-07-18T02:58:26;11.80;99.90
37356;DHT22;48747;50.250;18.848;2022-07-18T03:00:29;11.80;99.90
37356;DHT22;48747;50.250;18.848;2022-07-18T03:02:32;11.80;99.90
37356;DHT22;48747;50.250;18.848;2022-07-18T03:04:35;11.80;99.90
37356;DHT22;48747;50.250;18.848;2022-07-18T03:06:38;11.80;99.90
37356;DHT22;48747;50.250;18.848;2022-07-18T03:08:41;11.90;99.90
37356;DHT22;48747;50.250;18.848;2022-07-18T03:10:44;12.00;99.90
37356;DHT22;48747;50.250;18.848;2022-07-18T03:12:47;12.00;99.90
37356;DHT22;48747;50.250;18.848;2022-07-18T03:14:50;12.00;99.90
37356;DHT22;48747;50.250;18.848;2022-07-18T03:16:53;12.00;99.90
37356;DHT22;48747;50.250;18.848;2022-07-18T03:18:57;12.00;99.90
37356;DHT22;48747;50.250;18.848;2022-07-18T03:21:00;12.10;99.90
37356;DHT22;48747;50.250;18.848;2022-07-18T03:23:07;12.10;99.90
37356;DHT22;48747;50.250;18.848;2022-07-18T03:25:10;12.10;99.90
37356;DHT22;48747;50.250;18.848;2022-07-18T03:27:13;12.00;99.90
37356;DHT22;48747;50.250;18.848;2022-07-18T03:29:16;11.90;99.90
37356;DHT22;48747;50.250;18.848;2022-07-18T03:31:19;11.90;99.90
37356;DHT22;48747;50.250;18.848;2022-07-18T03:33:22;11.80;99.90
37356;DHT22;48747;50.250;18.848;2022-07-18T03:35:25;11.80;99.90
37356;DHT22;48747;50.250;18.848;2022-07-18T03:37:29;11.80;99.90
37356;DHT22;48747;50.250;18.848;2022-07-18T03:39:32;11.80;99.90
37356;DHT22;48747;50.250;18.848;2022-07-18T03:41:35;11.80;99.90
37356;DHT22;48747;50.250;18.848;2022-07-18T03:43:39;11.90;99.90
37356;DHT22;48747;50.250;18.848;2022-07-18T03:45:43;12.00;99.90
37356;DHT22;48747;50.250;18.848;2022-07-18T03:47:46;12.00;99.90
37356;DHT22;48747;50.250;18.848;2022-07-18T03:49:49;12.00;99.90
37356;DHT22;48747;50.250;18.848;2022-07-18T03:51:52;12.10;99.90
37356;DHT22;48747;50.250;18.848;2022-07-18T03:53:56;12.00;99.90
37356;DHT22;48747;50.250;18.848;2022-07-18T03:55:59;12.10;99.90
37356;DHT22;48747;50.250;18.848;2022-07-18T03:58:03;12.10;99.90
37356;DHT22;48747;50.250;18.848;2022-07-18T04:00:07;12.30;99.90
37356;DHT22;48747;50.250;18.848;2022-07-18T04:02:11;12.40;99.90
37356;DHT22;48747;50.250;18.848;2022-07-18T04:04:14;12.60;99.90
37356;DHT22;48747;50.250;18.848;2022-07-18T04:06:17;12.70;99.90
37356;DHT22;48747;50.250;18.848;2022-07-18T04:08:20;12.80;99.90
37356;DHT22;48747;50.250;18.848;2022-07-18T04:10:23;12.90;99.90
37356;DHT22;48747;50.250;18.848;2022-07-18T04:12:26;13.00;99.90
37356;DHT22;48747;50.250;18.848;2022-07-18T04:14:29;13.10;99.90
37356;DHT22;48747;50.250;18.848;2022-07-18T04:16:32;13.10;99.90
37356;DHT22;48747;50.250;18.848;2022-07-18T04:18:35;13.20;99.90
37356;DHT22;48747;50.250;18.848;2022-07-18T04:20:38;13.30;99.90
37356;DHT22;48747;50.250;18.848;2022-07-18T04:22:55;13.50;99.90
37356;DHT22;48747;50.250;18.848;2022-07-18T04:24:58;13.90;99.90
37356;DHT22;48747;50.250;18.848;2022-07-18T04:27:01;14.30;99.90
37356;DHT22;48747;50.250;18.848;2022-07-18T04:29:04;14.50;99.90
37356;DHT22;48747;50.250;18.848;2022-07-18T04:31:07;14.50;99.90
37356;DHT22;48747;50.250;18.848;2022-07-18T04:33:11;14.50;99.90
37356;DHT22;48747;50.250;18.848;2022-07-18T04:35:14;14.50;99.90
37356;DHT22;48747;50.250;18.848;2022-07-18T04:37:17;14.40;99.90
37356;DHT22;48747;50.250;18.848;2022-07-18T04:39:20;14.40;99.90
37356;DHT22;48747;50.250;18.848;2022-07-18T04:41:23;14.40;99.90
37356;DHT22;48747;50.250;18.848;2022-07-18T04:43:26;14.40;99.90
37356;DHT22;48747;50.250;18.848;2022-07-18T04:45:30;14.40;99.90
37356;DHT22;48747;50.250;18.848;2022-07-18T04:47:33;14.50;99.90
37356;DHT22;48747;50.250;18.848;2022-07-18T04:49:36;14.50;99.90
37356;DHT22;48747;50.250;18.848;2022-07-18T04:51:39;14.50;99.90
37356;DHT22;48747;50.250;18.848;2022-07-18T04:53:42;14.50;99.90
37356;DHT22;48747;50.250;18.848;2022-07-18T04:55:45;14.60;99.90
37356;DHT22;48747;50.250;18.848;2022-07-18T04:57:49;14.70;99.90
37356;DHT22;48747;50.250;18.848;2022-07-18T04:59:52;14.80;99.90
37356;DHT22;48747;50.250;18.848;2022-07-18T05:01:55;14.80;99.90
37356;DHT22;48747;50.250;18.848;2022-07-18T05:03:58;14.90;99.50
37356;DHT22;48747;50.250;18.848;2022-07-18T05:06:01;14.90;99.80
37356;DHT22;48747;50.250;18.848;2022-07-18T05:08:05;15.10;98.80
37356;DHT22;48747;50.250;18.848;2022-07-18T05:10:09;15.10;98.70
37356;DHT22;48747;50.250;18.848;2022-07-18T05:12:12;15.10;99.00
37356;DHT22;48747;50.250;18.848;2022-07-18T05:14:15;15.20;99.20
37356;DHT22;48747;50.250;18.848;2022-07-18T05:16:18;15.30;99.40
37356;DHT22;48747;50.250;18.848;2022-07-18T05:18:21;15.40;99.00
37356;DHT22;48747;50.250;18.848;2022-07-18T05:20:26;15.50;97.90
37356;DHT22;48747;50.250;18.848;2022-07-18T05:22:29;15.60;98.00
37356;DHT22;48747;50.250;18.848;2022-07-18T05:24:32;15.80;97.00
37356;DHT22;48747;50.250;18.848;2022-07-18T05:26:35;15.90;95.20
37356;DHT22;48747;50.250;18.848;2022-07-18T05:28:38;16.00;95.40
37356;DHT22;48747;50.250;18.848;2022-07-18T05:30:41;16.10;94.00
37356;DHT22;48747;50.250;18.848;2022-07-18T05:32:46;16.20;93.10
37356;DHT22;48747;50.250;18.848;2022-07-18T05:34:49;16.20;93.90
37356;DHT22;48747;50.250;18.848;2022-07-18T05:36:52;16.20;94.30
37356;DHT22;48747;50.250;18.848;2022-07-18T05:38:56;16.30;93.10
37356;DHT22;48747;50.250;18.848;2022-07-18T05:41:00;16.30;93.10
37356;DHT22;48747;50.250;18.848;2022-07-18T05:43:03;16.40;93.60
37356;DHT22;48747;50.250;18.848;2022-07-18T05:45:07;16.50;93.20
37356;DHT22;48747;50.250;18.848;2022-07-18T05:47:11;16.60;93.20
37356;DHT22;48747;50.250;18.848;2022-07-18T05:49:15;16.70;90.90
37356;DHT22;48747;50.250;18.848;2022-07-18T05:51:19;16.70;91.00
37356;DHT22;48747;50.250;18.848;2022-07-18T05:53:23;16.60;90.50
37356;DHT22;48747;50.250;18.848;2022-07-18T05:55:26;16.60;89.40
37356;DHT22;48747;50.250;18.848;2022-07-18T05:57:29;16.50;89.30
37356;DHT22;48747;50.250;18.848;2022-07-18T05:59:33;16.40;89.70
37356;DHT22;48747;50.250;18.848;2022-07-18T06:01:36;16.40;90.60
37356;DHT22;48747;50.250;18.848;2022-07-18T06:03:39;16.40;90.90
37356;DHT22;48747;50.250;18.848;2022-07-18T06:05:42;16.40;91.30
37356;DHT22;48747;50.250;18.848;2022-07-18T06:07:45;16.50;91.40
37356;DHT22;48747;50.250;18.848;2022-07-18T06:09:48;16.70;90.80
37356;DHT22;48747;50.250;18.848;2022-07-18T06:11:51;16.90;89.50
37356;DHT22;48747;50.250;18.848;2022-07-18T06:13:56;17.00;88.70
37356;DHT22;48747;50.250;18.848;2022-07-18T06:15:59;17.10;88.60
37356;DHT22;48747;50.250;18.848;2022-07-18T06:18:03;17.20;87.50
37356;DHT22;48747;50.250;18.848;2022-07-18T06:20:06;17.30;83.80
37356;DHT22;48747;50.250;18.848;2022-07-18T06:22:10;17.30;84.00
37356;DHT22;48747;50.250;18.848;2022-07-18T06:24:13;17.40;82.90
37356;DHT22;48747;50.250;18.848;2022-07-18T06:26:16;17.40;81.60
37356;DHT22;48747;50.250;18.848;2022-07-18T06:28:19;17.40;80.00
37356;DHT22;48747;50.250;18.848;2022-07-18T06:30:22;17.50;82.90
37356;DHT22;48747;50.250;18.848;2022-07-18T06:32:26;17.60;83.30
37356;DHT22;48747;50.250;18.848;2022-07-18T06:34:29;17.70;82.60
37356;DHT22;48747;50.250;18.848;2022-07-18T06:36:32;17.80;83.60
37356;DHT22;48747;50.250;18.848;2022-07-18T06:38:35;18.00;82.80
37356;DHT22;48747;50.250;18.848;2022-07-18T06:40:38;18.20;81.10
37356;DHT22;48747;50.250;18.848;2022-07-18T06:42:42;18.30;80.70
37356;DHT22;48747;50.250;18.848;2022-07-18T06:44:45;18.40;78.70
37356;DHT22;48747;50.250;18.848;2022-07-18T06:46:48;18.50;78.40
37356;DHT22;48747;50.250;18.848;2022-07-18T06:48:51;18.60;76.60
37356;DHT22;48747;50.250;18.848;2022-07-18T06:50:54;18.70;76.80
37356;DHT22;48747;50.250;18.848;2022-07-18T06:52:57;18.60;78.30
37356;DHT22;48747;50.250;18.848;2022-07-18T06:55:00;18.60;78.10
37356;DHT22;48747;50.250;18.848;2022-07-18T06:57:03;18.70;78.90
37356;DHT22;48747;50.250;18.848;2022-07-18T06:59:08;18.80;78.90
37356;DHT22;48747;50.250;18.848;2022-07-18T07:01:11;18.80;78.00
37356;DHT22;48747;50.250;18.848;2022-07-18T07:03:14;18.80;79.30
37356;DHT22;48747;50.250;18.848;2022-07-18T07:05:19;18.80;78.90
37356;DHT22;48747;50.250;18.848;2022-07-18T07:07:22;18.80;78.50
37356;DHT22;48747;50.250;18.848;2022-07-18T07:09:25;18.80;78.80
37356;DHT22;48747;50.250;18.848;2022-07-18T07:11:28;18.90;78.00
37356;DHT22;48747;50.250;18.848;2022-07-18T07:13:31;19.10;78.90
37356;DHT22;48747;50.250;18.848;2022-07-18T07:15:35;19.20;78.00
37356;DHT22;48747;50.250;18.848;2022-07-18T07:17:38;19.20;76.40
37356;DHT22;48747;50.250;18.848;2022-07-18T07:19:41;19.30;75.90
37356;DHT22;48747;50.250;18.848;2022-07-18T07:21:44;19.50;76.00
37356;DHT22;48747;50.250;18.848;2022-07-18T07:23:48;19.60;76.20
37356;DHT22;48747;50.250;18.848;2022-07-18T07:25:51;19.60;74.10
37356;DHT22;48747;50.250;18.848;2022-07-18T07:28:02;19.70;73.40
37356;DHT22;48747;50.250;18.848;2022-07-18T07:30:01;19.70;73.70
37356;DHT22;48747;50.250;18.848;2022-07-18T07:32:04;19.70;75.20
37356;DHT22;48747;50.250;18.848;2022-07-18T07:34:08;19.70;75.20
37356;DHT22;48747;50.250;18.848;2022-07-18T07:36:11;19.80;71.70
37356;DHT22;48747;50.250;18.848;2022-07-18T07:38:14;19.90;71.50
37356;DHT22;48747;50.250;18.848;2022-07-18T07:40:22;20.00;71.40
37356;DHT22;48747;50.250;18.848;2022-07-18T07:42:29;20.10;72.00
37356;DHT22;48747;50.250;18.848;2022-07-18T07:44:32;20.30;70.90
37356;DHT22;48747;50.250;18.848;2022-07-18T07:46:35;20.50;69.30
37356;DHT22;48747;50.250;18.848;2022-07-18T07:48:38;20.60;68.80
37356;DHT22;48747;50.250;18.848;2022-07-18T07:50:41;20.70;69.70
37356;DHT22;48747;50.250;18.848;2022-07-18T07:52:44;20.80;67.70
37356;DHT22;48747;50.250;18.848;2022-07-18T07:54:47;20.80;68.10
37356;DHT22;48747;50.250;18.848;2022-07-18T07:56:50;20.90;67.10
37356;DHT22;48747;50.250;18.848;2022-07-18T07:58:53;21.10;67.40
37356;DHT22;48747;50.250;18.848;2022-07-18T08:00:56;21.20;67.10
37356;DHT22;48747;50.250;18.848;2022-07-18T08:03:02;21.20;65.50
37356;DHT22;48747;50.250;18.848;2022-07-18T08:05:06;21.30;65.30
37356;DHT22;48747;50.250;18.848;2022-07-18T08:07:09;21.40;66.30
37356;DHT22;48747;50.250;18.848;2022-07-18T08:09:13;21.40;67.00
37356;DHT22;48747;50.250;18.848;2022-07-18T08:11:16;21.40;65.80
37356;DHT22;48747;50.250;18.848;2022-07-18T08:13:19;21.50;67.30
37356;DHT22;48747;50.250;18.848;2022-07-18T08:15:22;21.70;65.50
37356;DHT22;48747;50.250;18.848;2022-07-18T08:17:26;21.80;63.50
37356;DHT22;48747;50.250;18.848;2022-07-18T08:19:29;21.80;63.80
37356;DHT22;48747;50.250;18.848;2022-07-18T08:21:32;21.80;64.80
37356;DHT22;48747;50.250;18.848;2022-07-18T08:23:36;21.80;64.10
37356;DHT22;48747;50.250;18.848;2022-07-18T08:25:42;21.80;63.30
37356;DHT22;48747;50.250;18.848;2022-07-18T08:27:45;21.70;64.40
37356;DHT22;48747;50.250;18.848;2022-07-18T08:29:48;21.70;63.30
37356;DHT22;48747;50.250;18.848;2022-07-18T08:31:51;21.70;63.30
37356;DHT22;48747;50.250;18.848;2022-07-18T08:33:54;21.80;64.00
37356;DHT22;48747;50.250;18.848;2022-07-18T08:35:57;21.90;61.40
37356;DHT22;48747;50.250;18.848;2022-07-18T08:38:01;21.90;60.80
37356;DHT22;48747;50.250;18.848;2022-07-18T08:40:06;21.90;60.90
37356;DHT22;48747;50.250;18.848;2022-07-18T08:42:10;21.90;59.60
37356;DHT22;48747;50.250;18.848;2022-07-18T08:44:13;21.80;59.80
37356;DHT22;48747;50.250;18.848;2022-07-18T08:46:20;21.90;61.80
37356;DHT22;48747;50.250;18.848;2022-07-18T08:48:23;22.00;59.70
37356;DHT22;48747;50.250;18.848;2022-07-18T08:50:26;22.00;60.40
37356;DHT22;48747;50.250;18.848;2022-07-18T08:52:30;22.00;60.80
37356;DHT22;48747;50.250;18.848;2022-07-18T08:54:33;22.10;60.40
37356;DHT22;48747;50.250;18.848;2022-07-18T08:56:36;22.20;60.10
37356;DHT22;48747;50.250;18.848;2022-07-18T08:58:39;22.20;59.40
37356;DHT22;48747;50.250;18.848;2022-07-18T09:00:43;22.50;60.80
37356;DHT22;48747;50.250;18.848;2022-07-18T09:02:47;22.50;58.50
37356;DHT22;48747;50.250;18.848;2022-07-18T09:04:51;22.60;60.20
37356;DHT22;48747;50.250;18.848;2022-07-18T09:06:54;22.70;61.10
37356;DHT22;48747;50.250;18.848;2022-07-18T09:09:00;22.80;57.60
37356;DHT22;48747;50.250;18.848;2022-07-18T09:11:10;22.90;58.50
37356;DHT22;48747;50.250;18.848;2022-07-18T09:13:09;23.00;59.10
37356;DHT22;48747;50.250;18.848;2022-07-18T09:15:12;23.00;58.80
37356;DHT22;48747;50.250;18.848;2022-07-18T09:17:26;23.20;59.40
37356;DHT22;48747;50.250;18.848;2022-07-18T09:19:33;23.20;57.50
37356;DHT22;48747;50.250;18.848;2022-07-18T09:21:36;23.30;56.20
37356;DHT22;48747;50.250;18.848;2022-07-18T09:23:42;23.40;56.20
37356;DHT22;48747;50.250;18.848;2022-07-18T09:25:46;23.40;56.30
37356;DHT22;48747;50.250;18.848;2022-07-18T09:27:51;23.50;56.70
37356;DHT22;48747;50.250;18.848;2022-07-18T09:32:41;23.60;55.60
37356;DHT22;48747;50.250;18.848;2022-07-18T09:34:34;23.40;55.40
37356;DHT22;48747;50.250;18.848;2022-07-18T09:37:16;23.30;55.70
37356;DHT22;48747;50.250;18.848;2022-07-18T09:38:52;23.20;55.80
37356;DHT22;48747;50.250;18.848;2022-07-18T09:40:56;23.10;56.80
37356;DHT22;48747;50.250;18.848;2022-07-18T09:43:04;23.20;56.20
37356;DHT22;48747;50.250;18.848;2022-07-18T09:45:08;23.20;56.50
37356;DHT22;48747;50.250;18.848;2022-07-18T09:47:11;23.30;56.20
37356;DHT22;48747;50.250;18.848;2022-07-18T09:49:14;23.50;55.60
37356;DHT22;48747;50.250;18.848;2022-07-18T09:51:17;23.70;55.60
37356;DHT22;48747;50.250;18.848;2022-07-18T09:53:22;23.80;56.10
37356;DHT22;48747;50.250;18.848;2022-07-18T09:55:29;23.90;56.10
37356;DHT22;48747;50.250;18.848;2022-07-18T09:57:32;24.10;53.80
37356;DHT22;48747;50.250;18.848;2022-07-18T09:59:36;24.20;54.00
37356;DHT22;48747;50.250;18.848;2022-07-18T10:01:40;24.40;54.80
37356;DHT22;48747;50.250;18.848;2022-07-18T10:03:43;24.40;53.90
37356;DHT22;48747;50.250;18.848;2022-07-18T10:05:48;24.40;53.80
37356;DHT22;48747;50.250;18.848;2022-07-18T10:07:52;24.40;54.10
37356;DHT22;48747;50.250;18.848;2022-07-18T10:09:55;24.50;53.30
37356;DHT22;48747;50.250;18.848;2022-07-18T10:11:58;24.60;54.50
37356;DHT22;48747;50.250;18.848;2022-07-18T10:14:02;24.60;52.90
37356;DHT22;48747;50.250;18.848;2022-07-18T10:16:06;24.70;53.70
37356;DHT22;48747;50.250;18.848;2022-07-18T10:18:11;24.70;52.40
37356;DHT22;48747;50.250;18.848;2022-07-18T10:20:23;24.40;50.70
37356;DHT22;48747;50.250;18.848;2022-07-18T10:22:19;24.30;51.80
37356;DHT22;48747;50.250;18.848;2022-07-18T10:24:24;24.20;53.00
37356;DHT22;48747;50.250;18.848;2022-07-18T10:26:29;24.10;52.20
37356;DHT22;48747;50.250;18.848;2022-07-18T10:28:32;24.00;55.30
37356;DHT22;48747;50.250;18.848;2022-07-18T10:30:44;24.10;53.50
37356;DHT22;48747;50.250;18.848;2022-07-18T10:32:48;24.30;54.90
37356;DHT22;48747;50.250;18.848;2022-07-18T10:34:51;24.60;52.40
37356;DHT22;48747;50.250;18.848;2022-07-18T10:39:10;24.90;52.70
37356;DHT22;48747;50.250;18.848;2022-07-18T10:41:15;24.90;51.20
37356;DHT22;48747;50.250;18.848;2022-07-18T10:43:32;24.90;51.20
37356;DHT22;48747;50.250;18.848;2022-07-18T10:45:45;25.10;52.40
37356;DHT22;48747;50.250;18.848;2022-07-18T10:47:48;25.30;52.80
37356;DHT22;48747;50.250;18.848;2022-07-18T10:52:00;25.40;52.80
37356;DHT22;48747;50.250;18.848;2022-07-18T10:54:07;25.50;49.80
37356;DHT22;48747;50.250;18.848;2022-07-18T10:56:10;25.50;51.10
37356;DHT22;48747;50.250;18.848;2022-07-18T10:58:16;25.50;50.60
37356;DHT22;48747;50.250;18.848;2022-07-18T11:00:36;25.50;49.80
37356;DHT22;48747;50.250;18.848;2022-07-18T11:02:41;25.50;51.30
37356;DHT22;48747;50.250;18.848;2022-07-18T11:04:40;25.50;50.00
37356;DHT22;48747;50.250;18.848;2022-07-18T11:07:10;25.50;51.40
37356;DHT22;48747;50.250;18.848;2022-07-18T11:09:51;25.50;49.20
37356;DHT22;48747;50.250;18.848;2022-07-18T11:12:16;25.60;51.10
37356;DHT22;48747;50.250;18.848;2022-07-18T11:13:48;25.60;49.90
37356;DHT22;48747;50.250;18.848;2022-07-18T11:15:58;25.50;51.00
37356;DHT22;48747;50.250;18.848;2022-07-18T11:18:03;25.60;51.90
37356;DHT22;48747;50.250;18.848;2022-07-18T11:22:29;25.90;49.60
37356;DHT22;48747;50.250;18.848;2022-07-18T11:24:33;25.90;48.30
37356;DHT22;48747;50.250;18.848;2022-07-18T11:26:44;25.70;48.50
37356;DHT22;48747;50.250;18.848;2022-07-18T11:28:50;25.70;51.60
37356;DHT22;48747;50.250;18.848;2022-07-18T11:31:04;25.80;50.70
37356;DHT22;48747;50.250;18.848;2022-07-18T11:33:22;25.90;52.20
37356;DHT22;48747;50.250;18.848;2022-07-18T11:35:26;26.10;50.60
37356;DHT22;48747;50.250;18.848;2022-07-18T11:37:29;26.30;51.40
37356;DHT22;48747;50.250;18.848;2022-07-18T11:39:33;26.20;50.00
37356;DHT22;48747;50.250;18.848;2022-07-18T11:41:40;26.20;51.30
37356;DHT22;48747;50.250;18.848;2022-07-18T11:43:45;26.20;50.00
37356;DHT22;48747;50.250;18.848;2022-07-18T11:45:58;26.10;49.50
37356;DHT22;48747;50.250;18.848;2022-07-18T11:47:53;26.30;51.70
37356;DHT22;48747;50.250;18.848;2022-07-18T11:49:56;26.30;50.10
37356;DHT22;48747;50.250;18.848;2022-07-18T11:52:00;26.20;49.10
37356;DHT22;48747;50.250;18.848;2022-07-18T11:54:03;26.10;49.80
37356;DHT22;48747;50.250;18.848;2022-07-18T11:56:07;26.20;50.80
37356;DHT22;48747;50.250;18.848;2022-07-18T11:58:12;26.30;49.40
37356;DHT22;48747;50.250;18.848;2022-07-18T12:00:18;26.30;51.40
37356;DHT22;48747;50.250;18.848;2022-07-18T12:05:00;26.50;50.70
37356;DHT22;48747;50.250;18.848;2022-07-18T12:07:20;26.30;48.40
37356;DHT22;48747;50.250;18.848;2022-07-18T12:09:27;26.20;50.80
37356;DHT22;48747;50.250;18.848;2022-07-18T12:11:32;26.20;51.20
37356;DHT22;48747;50.250;18.848;2022-07-18T12:13:58;26.10;50.30
37356;DHT22;48747;50.250;18.848;2022-07-18T12:16:01;26.20;51.40
37356;DHT22;48747;50.250;18.848;2022-07-18T12:18:04;26.10;50.70
37356;DHT22;48747;50.250;18.848;2022-07-18T12:20:20;26.00;50.60
37356;DHT22;48747;50.250;18.848;2022-07-18T12:22:19;26.00;50.90
37356;DHT22;48747;50.250;18.848;2022-07-18T12:26:36;26.00;49.30
37356;DHT22;48747;50.250;18.848;2022-07-18T12:28:40;26.10;50.30
37356;DHT22;48747;50.250;18.848;2022-07-18T12:30:43;25.90;49.70
37356;DHT22;48747;50.250;18.848;2022-07-18T12:32:51;26.00;50.60
37356;DHT22;48747;50.250;18.848;2022-07-18T12:34:56;26.20;52.40
37356;DHT22;48747;50.250;18.848;2022-07-18T12:36:59;26.40;49.60
37356;DHT22;48747;50.250;18.848;2022-07-18T12:39:04;26.70;51.40
37356;DHT22;48747;50.250;18.848;2022-07-18T12:41:09;26.70;47.50
37356;DHT22;48747;50.250;18.848;2022-07-18T12:45:17;26.60;48.20
37356;DHT22;48747;50.250;18.848;2022-07-18T12:47:20;26.70;48.90
37356;DHT22;48747;50.250;18.848;2022-07-18T12:49:23;26.70;50.00
37356;DHT22;48747;50.250;18.848;2022-07-18T12:51:30;26.80;49.70
37356;DHT22;48747;50.250;18.848;2022-07-18T12:53:35;26.90;48.10
37356;DHT22;48747;50.250;18.848;2022-07-18T12:55:38;27.00;48.20
37356;DHT22;48747;50.250;18.848;2022-07-18T12:57:42;27.10;49.80
37356;DHT22;48747;50.250;18.848;2022-07-18T12:59:46;27.30;48.00
37356;DHT22;48747;50.250;18.848;2022-07-18T13:01:49;27.50;48.40
37356;DHT22;48747;50.250;18.848;2022-07-18T13:03:52;27.60;51.00
37356;DHT22;48747;50.250;18.848;2022-07-18T13:05:55;27.60;49.60
37356;DHT22;48747;50.250;18.848;2022-07-18T13:07:58;27.60;49.00